FALA METAR and TAF | Updated Today

FALA METAR

Lanseria Airport

Observation time: 46 min. ago

FALA 061900Z 34003KT CAVOK 23/12 Q1018 NOSIG

Need help? Read our tutorial on how to read METARs or read the parsed version below.

Lanseria Airport (FALA) METAR

  • Weather conditions on Mon, 06 Feb 2023 19:00:00 +0000 (46 min. ago):
  • Present conditions: Dry
  • Clouds: Clear skies
  • Visibility: Greater than 10 km
  • Wind: 340 degrees at 3 knots
  • Temperature: 23 celsius
  • Dew point: 12 celsius
  • Pressure: 1018 millibars
  • Remarks: None


Useful to know...

FALA TAF

Lanseria Airport

TAF FALA 061600Z 0618/0718 10010KT CAVOK TX30/0712Z TN15/0703Z BECMG 0702/0704 VRB03KT PROB30 TEMPO 0716/0718 21011KT TS FEW050CB
Observation time: 3:46 hr. ago
Need help? Read our tutorial on how to read TAFs or read the parsed version below.

Parsed version of TAF for Lanseria Airport (FALA)

  • From 06 February at 18:00 UTC, to day 07 of the month at 18:00 UTC
  • Visibility: Greater than 10 km
  • Wind: 100 degrees at 10
  • Expected to arise soon, from 07 February at 02:00 UTC, to day 07 of the month at 04:00 UTC
  • Wind: Variable at 3
  • Expected to arise temporarily, from 07 February at 16:00 UTC, to day 07 of the month at 18:00 UTC
    Probability of 30%
  • Clouds: A few at 1524 meters, cumulonimbus
  • Wind: 210 degrees at 11
  • Other: Thunderstorms